KZR721 VIDP-UAAA
Flight info
| Callsign | KZR721 |
|---|---|
| Flight time | N/A |
| Altitude | 34000 |
| Route | OROTI6F OROTI A589 ASARI L509 SULOM DCT LA Z305 PS DCT FIRUZ/K0835F340 DCT POMIR L139 INKAR DCT IRGUL B351 RUDEK L143 MNS DCT EKLAT |
| Aircraft | A21N/M-L/S |
Departure
| Time | N/A |
|---|---|
| Airport | Indira Gandhi International Airport (VIDP) |
Arrival
| Time | 2026-04-28 16:41 |
|---|---|
| Airport | Almaty International Airport (UAAA) |
| Time | Latitude | Longitude | Altitude | Speed | Heading |
|---|---|---|---|---|---|
| 2026-04-28 15:50 | 40.32873 | 71.33247 | 34001 ft | 457 kts | 35° |
| 2026-04-28 15:50 | 40.35473 | 71.35652 | 34002 ft | 457 kts | 35° |
| 2026-04-28 15:50 | 40.40672 | 71.40458 | 34002 ft | 457 kts | 35° |
| 2026-04-28 15:51 | 40.45870 | 71.45268 | 34002 ft | 457 kts | 35° |
| 2026-04-28 15:51 | 40.51061 | 71.50082 | 34001 ft | 457 kts | 35° |
| 2026-04-28 15:52 | 40.56257 | 71.54897 | 34001 ft | 457 kts | 35° |
| 2026-04-28 15:52 | 40.61414 | 71.59711 | 34002 ft | 457 kts | 35° |
| 2026-04-28 15:53 | 40.66609 | 71.64532 | 34000 ft | 457 kts | 35° |
| 2026-04-28 15:53 | 40.71797 | 71.69373 | 34001 ft | 457 kts | 35° |
| 2026-04-28 15:54 | 40.76995 | 71.74225 | 34001 ft | 457 kts | 35° |
| 2026-04-28 15:54 | 40.82181 | 71.79096 | 34002 ft | 457 kts | 35° |
| 2026-04-28 15:55 | 40.87357 | 71.83969 | 34001 ft | 457 kts | 35° |
| 2026-04-28 15:55 | 40.92509 | 71.88818 | 34001 ft | 457 kts | 35° |
| 2026-04-28 15:56 | 40.97689 | 71.93709 | 34002 ft | 457 kts | 35° |
| 2026-04-28 15:56 | 41.02878 | 71.98619 | 34002 ft | 457 kts | 35° |
| 2026-04-28 15:57 | 41.08055 | 72.03517 | 34002 ft | 457 kts | 35° |
| 2026-04-28 15:57 | 41.13208 | 72.08466 | 33999 ft | 457 kts | 38° |
| 2026-04-28 15:58 | 41.17638 | 72.14421 | 34002 ft | 457 kts | 47° |
| 2026-04-28 15:58 | 41.22124 | 72.20406 | 34006 ft | 457 kts | 42° |
| 2026-04-28 15:59 | 41.26065 | 72.25091 | 34002 ft | 457 kts | 41° |
| 2026-04-28 15:59 | 41.31612 | 72.31678 | 34001 ft | 457 kts | 41° |
| 2026-04-28 16:00 | 41.36352 | 72.37314 | 34001 ft | 457 kts | 41° |
| 2026-04-28 16:00 | 41.41086 | 72.42974 | 33998 ft | 457 kts | 42° |
| 2026-04-28 16:01 | 41.45820 | 72.48631 | 34003 ft | 457 kts | 41° |
| 2026-04-28 16:01 | 41.50562 | 72.54280 | 34001 ft | 457 kts | 41° |
| 2026-04-28 16:02 | 41.55305 | 72.59933 | 34001 ft | 457 kts | 41° |
| 2026-04-28 16:02 | 41.60038 | 72.65609 | 34001 ft | 457 kts | 42° |
| 2026-04-28 16:03 | 41.64729 | 72.71252 | 34001 ft | 457 kts | 42° |
| 2026-04-28 16:03 | 41.69423 | 72.76979 | 34000 ft | 457 kts | 42° |
| 2026-04-28 16:04 | 41.74151 | 72.82670 | 34002 ft | 457 kts | 41° |
| 2026-04-28 16:04 | 41.78118 | 72.87441 | 34002 ft | 457 kts | 42° |
| 2026-04-28 16:05 | 41.83602 | 72.94072 | 34002 ft | 457 kts | 42° |
| 2026-04-28 16:05 | 41.88309 | 72.99794 | 33998 ft | 456 kts | 42° |
| 2026-04-28 16:06 | 41.93010 | 73.05509 | 34002 ft | 456 kts | 42° |
| 2026-04-28 16:06 | 41.97725 | 73.11259 | 34002 ft | 456 kts | 42° |
| 2026-04-28 16:07 | 42.02425 | 73.17004 | 34003 ft | 456 kts | 42° |
| 2026-04-28 16:08 | 42.09444 | 73.25598 | 34001 ft | 456 kts | 42° |
| 2026-04-28 16:08 | 42.14168 | 73.31399 | 34001 ft | 456 kts | 42° |
| 2026-04-28 16:09 | 42.21267 | 73.39869 | 34002 ft | 456 kts | 41° |
| 2026-04-28 16:10 | 42.28423 | 73.48384 | 34003 ft | 456 kts | 41° |
| 2026-04-28 16:10 | 42.35567 | 73.56902 | 33999 ft | 456 kts | 41° |
| 2026-04-28 16:11 | 42.44808 | 73.68610 | 34001 ft | 456 kts | 44° |
| 2026-04-28 16:12 | 42.51600 | 73.77661 | 34002 ft | 456 kts | 44° |
| 2026-04-28 16:13 | 42.58360 | 73.86752 | 34001 ft | 456 kts | 44° |
| 2026-04-28 16:14 | 42.67412 | 73.98853 | 33997 ft | 456 kts | 45° |
| 2026-04-28 16:15 | 42.75671 | 74.09979 | 34003 ft | 456 kts | 45° |
| 2026-04-28 16:15 | 42.78967 | 74.14423 | 34003 ft | 456 kts | 45° |
| 2026-04-28 16:16 | 42.85726 | 74.23578 | 34006 ft | 456 kts | 45° |
| 2026-04-28 16:17 | 42.92441 | 74.32721 | 34003 ft | 456 kts | 45° |
| 2026-04-28 16:17 | 42.96939 | 74.38853 | 34002 ft | 456 kts | 45° |
| 2026-04-28 16:18 | 43.01437 | 74.44989 | 34002 ft | 456 kts | 45° |
| 2026-04-28 16:18 | 43.05854 | 74.51209 | 33995 ft | 456 kts | 52° |
| 2026-04-28 16:19 | 43.07545 | 74.54876 | 33999 ft | 456 kts | 63° |
| 2026-04-28 16:19 | 43.08844 | 74.58838 | 34005 ft | 456 kts | 67° |
| 2026-04-28 16:19 | 43.11228 | 74.66865 | 33900 ft | 449 kts | 68° |
| 2026-04-28 16:20 | 43.12420 | 74.70826 | 33555 ft | 453 kts | 68° |
| 2026-04-28 16:20 | 43.13619 | 74.74777 | 33150 ft | 453 kts | 67° |
| 2026-04-28 16:20 | 43.14825 | 74.78741 | 32506 ft | 450 kts | 67° |
| 2026-04-28 16:20 | 43.16045 | 74.82751 | 31767 ft | 450 kts | 67° |
| 2026-04-28 16:21 | 43.17229 | 74.86650 | 31028 ft | 449 kts | 68° |
| 2026-04-28 16:21 | 43.18425 | 74.90592 | 30284 ft | 448 kts | 67° |
| 2026-04-28 16:21 | 43.19621 | 74.94542 | 29519 ft | 448 kts | 68° |
| 2026-04-28 16:21 | 43.20788 | 74.98402 | 28810 ft | 445 kts | 68° |
| 2026-04-28 16:22 | 43.21990 | 75.02382 | 28126 ft | 442 kts | 68° |
| 2026-04-28 16:22 | 43.23157 | 75.06253 | 27497 ft | 437 kts | 68° |
| 2026-04-28 16:22 | 43.24311 | 75.10091 | 26869 ft | 433 kts | 68° |
| 2026-04-28 16:22 | 43.25452 | 75.13892 | 26217 ft | 429 kts | 68° |
| 2026-04-28 16:23 | 43.26584 | 75.17663 | 25591 ft | 424 kts | 68° |
| 2026-04-28 16:23 | 43.27700 | 75.21388 | 24975 ft | 420 kts | 68° |
| 2026-04-28 16:23 | 43.28800 | 75.25079 | 24348 ft | 416 kts | 68° |
| 2026-04-28 16:23 | 43.29897 | 75.28758 | 23759 ft | 419 kts | 68° |
| 2026-04-28 16:24 | 43.30992 | 75.32447 | 23156 ft | 414 kts | 68° |
| 2026-04-28 16:24 | 43.32078 | 75.36092 | 22535 ft | 410 kts | 68° |
| 2026-04-28 16:24 | 43.33155 | 75.39710 | 21878 ft | 408 kts | 68° |
| 2026-04-28 16:24 | 43.34225 | 75.43310 | 21223 ft | 405 kts | 68° |
| 2026-04-28 16:25 | 43.35283 | 75.46878 | 20595 ft | 402 kts | 68° |
| 2026-04-28 16:25 | 43.36329 | 75.50418 | 19992 ft | 397 kts | 68° |
| 2026-04-28 16:25 | 43.37108 | 75.54032 | 19413 ft | 392 kts | 81° |
| 2026-04-28 16:25 | 43.37185 | 75.57744 | 18862 ft | 388 kts | 95° |
| 2026-04-28 16:26 | 43.36824 | 75.61405 | 18336 ft | 384 kts | 99° |
| 2026-04-28 16:26 | 43.36413 | 75.65021 | 17835 ft | 382 kts | 99° |
| 2026-04-28 16:26 | 43.36011 | 75.68629 | 17319 ft | 380 kts | 99° |
| 2026-04-28 16:26 | 43.35629 | 75.72162 | 16781 ft | 379 kts | 98° |
| 2026-04-28 16:27 | 43.35246 | 75.75745 | 16230 ft | 378 kts | 98° |
| 2026-04-28 16:27 | 43.34866 | 75.79326 | 15692 ft | 377 kts | 98° |
| 2026-04-28 16:27 | 43.34116 | 75.86425 | 14643 ft | 374 kts | 98° |
| 2026-04-28 16:28 | 43.33737 | 75.89964 | 14122 ft | 372 kts | 98° |
| 2026-04-28 16:28 | 43.33362 | 75.93465 | 13615 ft | 370 kts | 98° |
| 2026-04-28 16:28 | 43.32986 | 75.96964 | 13108 ft | 368 kts | 98° |
| 2026-04-28 16:28 | 43.32615 | 76.00422 | 12630 ft | 365 kts | 98° |
| 2026-04-28 16:29 | 43.31887 | 76.07278 | 11649 ft | 361 kts | 98° |
| 2026-04-28 16:29 | 43.31169 | 76.13970 | 10857 ft | 342 kts | 98° |
| 2026-04-28 16:30 | 43.30827 | 76.17134 | 10619 ft | 327 kts | 99° |
| 2026-04-28 16:30 | 43.30496 | 76.20159 | 10439 ft | 312 kts | 99° |
| 2026-04-28 16:30 | 43.30181 | 76.23038 | 10265 ft | 299 kts | 99° |
| 2026-04-28 16:30 | 43.29878 | 76.25790 | 10071 ft | 291 kts | 99° |
| 2026-04-28 16:31 | 43.29575 | 76.28537 | 9751 ft | 291 kts | 99° |
| 2026-04-28 16:31 | 43.29271 | 76.31285 | 9403 ft | 291 kts | 99° |
| 2026-04-28 16:31 | 43.28968 | 76.34034 | 9056 ft | 292 kts | 99° |
| 2026-04-28 16:31 | 43.28659 | 76.36791 | 8709 ft | 290 kts | 99° |
| 2026-04-28 16:32 | 43.28356 | 76.39511 | 8374 ft | 286 kts | 99° |
| 2026-04-28 16:32 | 43.27757 | 76.44900 | 7739 ft | 286 kts | 99° |
| 2026-04-28 16:32 | 43.27457 | 76.47594 | 7437 ft | 285 kts | 99° |
| 2026-04-28 16:33 | 43.27157 | 76.50282 | 7115 ft | 284 kts | 99° |
| 2026-04-28 16:33 | 43.26959 | 76.52056 | 6898 ft | 284 kts | 99° |
| 2026-04-28 16:33 | 43.26559 | 76.55605 | 6456 ft | 278 kts | 99° |
| 2026-04-28 16:33 | 43.26267 | 76.58188 | 6134 ft | 278 kts | 99° |
| 2026-04-28 16:34 | 43.25972 | 76.60804 | 5820 ft | 277 kts | 99° |
| 2026-04-28 16:34 | 43.25676 | 76.63417 | 5491 ft | 277 kts | 99° |
| 2026-04-28 16:34 | 43.25380 | 76.66026 | 5191 ft | 274 kts | 99° |
| 2026-04-28 16:34 | 43.25099 | 76.68520 | 5081 ft | 262 kts | 99° |
| 2026-04-28 16:35 | 43.24830 | 76.70910 | 5068 ft | 245 kts | 99° |
| 2026-04-28 16:35 | 43.24579 | 76.73147 | 5068 ft | 228 kts | 99° |
| 2026-04-28 16:35 | 43.24350 | 76.75172 | 5121 ft | 201 kts | 99° |
| 2026-04-28 16:35 | 43.24145 | 76.76962 | 5134 ft | 180 kts | 99° |
| 2026-04-28 16:36 | 43.23959 | 76.78583 | 5103 ft | 166 kts | 99° |
| 2026-04-28 16:36 | 43.23797 | 76.80155 | 5099 ft | 166 kts | 94° |
| 2026-04-28 16:36 | 43.24054 | 76.81675 | 5101 ft | 167 kts | 62° |
| 2026-04-28 16:36 | 43.24737 | 76.82935 | 5117 ft | 167 kts | 50° |
| 2026-04-28 16:37 | 43.25415 | 76.84226 | 5111 ft | 167 kts | 54° |
| 2026-04-28 16:37 | 43.26076 | 76.85536 | 4995 ft | 166 kts | 56° |
| 2026-04-28 16:37 | 43.26727 | 76.86843 | 4802 ft | 166 kts | 56° |
| 2026-04-28 16:38 | 43.28020 | 76.89448 | 4406 ft | 165 kts | 56° |
| 2026-04-28 16:38 | 43.28638 | 76.90695 | 4184 ft | 148 kts | 56° |
| 2026-04-28 16:38 | 43.29207 | 76.91841 | 3969 ft | 144 kts | 56° |
| 2026-04-28 16:38 | 43.29770 | 76.92976 | 3769 ft | 144 kts | 56° |
| 2026-04-28 16:39 | 43.30333 | 76.94113 | 3562 ft | 144 kts | 56° |
| 2026-04-28 16:39 | 43.30895 | 76.95247 | 3377 ft | 143 kts | 56° |
| 2026-04-28 16:39 | 43.31454 | 76.96374 | 3188 ft | 143 kts | 56° |
| 2026-04-28 16:39 | 43.32012 | 76.97499 | 2999 ft | 142 kts | 56° |
| 2026-04-28 16:40 | 43.32562 | 76.98608 | 2819 ft | 142 kts | 56° |
| 2026-04-28 16:40 | 43.33119 | 76.99725 | 2619 ft | 141 kts | 56° |
| 2026-04-28 16:40 | 43.33672 | 77.00840 | 2423 ft | 141 kts | 56° |
| 2026-04-28 16:40 | 43.34230 | 77.01951 | 2261 ft | 141 kts | 55° |
| 2026-04-28 16:41 | 43.34731 | 77.02956 | 2233 ft | 109 kts | 56° |
| 2026-04-28 16:41 | 43.35056 | 77.03626 | 2236 ft | 70 kts | 57° |
| 2026-04-28 16:41 | 43.35133 | 77.03782 | 2234 ft | 1 kts | 51° |
| 2026-04-28 16:41 | 43.35157 | 77.03810 | 2234 ft | 8 kts | 39° |
| 2026-04-28 16:42 | 43.35211 | 77.03878 | 2234 ft | 12 kts | 40° |
| 2026-04-28 16:42 | 43.35262 | 77.03923 | 2233 ft | 9 kts | 28° |
| 2026-04-28 16:42 | 43.35326 | 77.03968 | 2232 ft | 12 kts | 26° |
| 2026-04-28 16:42 | 43.35394 | 77.04012 | 2227 ft | 9 kts | 17° |
| 2026-04-28 16:43 | 43.35438 | 77.03982 | 2227 ft | 7 kts | 287° |
| 2026-04-28 16:43 | 43.35425 | 77.03906 | 2228 ft | 11 kts | 233° |
| 2026-04-28 16:43 | 43.35375 | 77.03807 | 2232 ft | 15 kts | 236° |
| 2026-04-28 16:43 | 43.35310 | 77.03676 | 2233 ft | 18 kts | 236° |
| 2026-04-28 16:44 | 43.35252 | 77.03560 | 2234 ft | 16 kts | 236° |
| 2026-04-28 16:44 | 43.35183 | 77.03421 | 2235 ft | 17 kts | 236° |
| 2026-04-28 16:44 | 43.35119 | 77.03291 | 2234 ft | 16 kts | 236° |
| 2026-04-28 16:44 | 43.35058 | 77.03168 | 2234 ft | 17 kts | 236° |
| 2026-04-28 16:45 | 43.34989 | 77.03028 | 2232 ft | 19 kts | 236° |
| 2026-04-28 16:45 | 43.34922 | 77.02895 | 2232 ft | 14 kts | 236° |
| 2026-04-28 16:45 | 43.34859 | 77.02767 | 2232 ft | 17 kts | 236° |
| 2026-04-28 16:45 | 43.34800 | 77.02647 | 2233 ft | 11 kts | 236° |
| 2026-04-28 16:46 | 43.34772 | 77.02529 | 2235 ft | 15 kts | 272° |
| 2026-04-28 16:46 | 43.34776 | 77.02425 | 2235 ft | 11 kts | 273° |
| 2026-04-28 16:46 | 43.34781 | 77.02304 | 2234 ft | 14 kts | 273° |
| 2026-04-28 16:46 | 43.34788 | 77.02182 | 2234 ft | 10 kts | 273° |
| 2026-04-28 16:47 | 43.34794 | 77.02068 | 2234 ft | 14 kts | 274° |
| 2026-04-28 16:47 | 43.34798 | 77.01978 | 2234 ft | 10 kts | 273° |
| 2026-04-28 16:47 | 43.34803 | 77.01866 | 2234 ft | 14 kts | 274° |
| 2026-04-28 16:47 | 43.34807 | 77.01790 | 2234 ft | 9 kts | 274° |
| 2026-04-28 16:48 | 43.34813 | 77.01690 | 2234 ft | 12 kts | 274° |
| 2026-04-28 16:48 | 43.34816 | 77.01621 | 2234 ft | 6 kts | 273° |
| 2026-04-28 16:48 | 43.34819 | 77.01559 | 2234 ft | 4 kts | 277° |
| 2026-04-28 16:48 | 43.34844 | 77.01518 | 2234 ft | 4 kts | 336° |
| 2026-04-28 16:49 | 43.34860 | 77.01508 | 2234 ft | 4 kts | 336° |
| 2026-04-28 16:49 | 43.34901 | 77.01485 | 2234 ft | 8 kts | 337° |
| 2026-04-28 16:49 | 43.34944 | 77.01459 | 2234 ft | 7 kts | 336° |
| 2026-04-28 16:49 | 43.34986 | 77.01430 | 2234 ft | 8 kts | 317° |
| 2026-04-28 16:50 | 43.34983 | 77.01362 | 2234 ft | 9 kts | 243° |
| 2026-04-28 16:50 | 43.34974 | 77.01337 | 2234 ft | 0 kts | 245° |
| 2026-04-28 16:50 | 43.34973 | 77.01333 | 2234 ft | 0 kts | 245° |
| 2026-04-28 16:50 | 43.34972 | 77.01329 | 2234 ft | 2 kts | 245° |
| 2026-04-28 16:51 | 43.34964 | 77.01305 | 2234 ft | 0 kts | 245° |
| 2026-04-28 16:51 | 43.34960 | 77.01293 | 2234 ft | 0 kts | 245° |
| 2026-04-28 16:54 | 43.34912 | 77.01339 | 2234 ft | 0 kts | 245° |
| 2026-04-28 16:56 | 43.35032 | 77.01250 | 2234 ft | 0 kts | 246° |
| 2026-04-28 16:56 | 43.34841 | 77.01380 | 2234 ft | 0 kts | 245° |